createdAt,value
2023-03-07T00:00:02.374Z,0
2023-03-07T00:01:02.314Z,0
2023-03-07T00:02:02.387Z,0
2023-03-07T00:03:05.759Z,0
2023-03-07T00:04:02.909Z,0
2023-03-07T00:05:02.377Z,0
2023-03-07T00:06:02.410Z,0
2023-03-07T00:07:02.406Z,0
2023-03-07T00:08:02.399Z,0
2023-03-07T00:09:05.370Z,0
2023-03-07T00:10:02.436Z,0
2023-03-07T00:11:02.390Z,0
2023-03-07T00:12:02.407Z,0
2023-03-07T00:13:02.416Z,0
2023-03-07T00:14:05.464Z,0
2023-03-07T00:15:02.407Z,0
2023-03-07T00:16:02.677Z,0
2023-03-07T00:17:02.381Z,0
2023-03-07T00:18:02.471Z,0
2023-03-07T00:19:02.396Z,0
2023-03-07T00:20:08.205Z,0
2023-03-07T00:21:02.380Z,0
2023-03-07T00:22:02.366Z,0
2023-03-07T00:23:02.361Z,0
2023-03-07T00:24:02.378Z,0
2023-03-07T00:25:05.173Z,0
2023-03-07T00:26:02.387Z,0
2023-03-07T00:27:02.422Z,0
2023-03-07T00:28:02.533Z,0
2023-03-07T00:29:02.389Z,0
2023-03-07T00:30:02.467Z,0
2023-03-07T00:31:05.366Z,0
2023-03-07T00:32:02.435Z,0
2023-03-07T00:33:02.384Z,0
2023-03-07T00:34:02.390Z,0
2023-03-07T00:35:02.439Z,0
2023-03-07T00:36:08.476Z,0
2023-03-07T00:37:02.408Z,0
2023-03-07T00:38:02.418Z,0
2023-03-07T00:39:02.367Z,0
2023-03-07T00:40:02.539Z,0
2023-03-07T00:41:05.439Z,0
2023-03-07T00:42:02.395Z,0
2023-03-07T00:43:02.450Z,0
2023-03-07T00:44:02.471Z,0
2023-03-07T00:45:02.447Z,0
2023-03-07T00:46:02.701Z,0
2023-03-07T00:47:05.503Z,0
2023-03-07T00:48:02.424Z,0
2023-03-07T00:49:02.426Z,0
2023-03-07T00:50:02.460Z,0
2023-03-07T00:51:02.406Z,0
2023-03-07T00:52:05.501Z,0
2023-03-07T00:53:02.410Z,0
2023-03-07T00:54:02.459Z,0
2023-03-07T00:55:02.434Z,0
2023-03-07T00:56:02.469Z,0
2023-03-07T00:57:02.418Z,0
2023-03-07T00:58:02.436Z,0
2023-03-07T00:59:02.506Z,0
2023-03-07T01:00:02.539Z,0
2023-03-07T01:01:02.735Z,0
2023-03-07T01:02:02.436Z,0
2023-03-07T01:03:06.522Z,0
2023-03-07T01:04:02.995Z,0
2023-03-07T01:05:02.446Z,0
2023-03-07T01:06:02.517Z,0
2023-03-07T01:07:03.468Z,0
2023-03-07T01:08:02.441Z,0
2023-03-07T01:09:02.462Z,0
2023-03-07T01:10:02.545Z,0
2023-03-07T01:11:02.434Z,0
2023-03-07T01:12:02.637Z,0
2023-03-07T01:13:02.450Z,0
2023-03-07T01:14:02.513Z,0
2023-03-07T01:15:02.481Z,0
2023-03-07T01:16:02.473Z,0
2023-03-07T01:17:02.701Z,0
2023-03-07T01:18:02.439Z,0
2023-03-07T01:19:05.609Z,0
2023-03-07T01:20:02.457Z,0
2023-03-07T01:21:02.439Z,0
2023-03-07T01:22:03.471Z,0
2023-03-07T01:23:02.430Z,0
2023-03-07T01:24:02.515Z,0
2023-03-07T01:25:02.635Z,0
2023-03-07T01:26:02.477Z,0
2023-03-07T01:27:02.465Z,0
2023-03-07T01:28:02.530Z,0
2023-03-07T01:29:02.468Z,0
2023-03-07T01:30:05.618Z,0
2023-03-07T01:31:02.511Z,0
2023-03-07T01:32:02.851Z,0
2023-03-07T01:33:02.503Z,0
2023-03-07T01:34:02.609Z,0
2023-03-07T01:35:05.363Z,0
2023-03-07T01:36:03.215Z,0
2023-03-07T01:37:02.633Z,0
2023-03-07T01:38:02.494Z,0
2023-03-07T01:39:02.509Z,0
2023-03-07T01:40:02.544Z,0
2023-03-07T01:41:05.692Z,0
2023-03-07T01:42:02.522Z,0
2023-03-07T01:43:02.478Z,0
2023-03-07T01:44:02.517Z,0
2023-03-07T01:45:02.483Z,0
2023-03-07T01:46:06.857Z,0
2023-03-07T01:47:02.826Z,0
2023-03-07T01:48:02.531Z,0
2023-03-07T01:49:02.536Z,0
2023-03-07T01:50:02.887Z,0
2023-03-07T01:51:02.505Z,0
2023-03-07T01:52:03.607Z,0
2023-03-07T01:53:02.638Z,0
2023-03-07T01:54:02.560Z,0
2023-03-07T01:55:02.480Z,0
2023-03-07T01:56:02.563Z,0
2023-03-07T01:57:05.602Z,0
2023-03-07T01:58:02.513Z,0
2023-03-07T01:59:02.500Z,0
2023-03-07T02:00:02.557Z,0
2023-03-07T02:01:02.884Z,0
2023-03-07T02:02:02.621Z,0
2023-03-07T02:03:05.704Z,0
2023-03-07T02:04:02.739Z,0
2023-03-07T02:05:02.534Z,0
2023-03-07T02:06:02.545Z,0
2023-03-07T02:07:02.520Z,0
2023-03-07T02:08:05.683Z,0
2023-03-07T02:09:02.560Z,0
2023-03-07T02:10:02.550Z,0
2023-03-07T02:11:02.546Z,0
2023-03-07T02:12:02.545Z,0
2023-03-07T02:13:02.565Z,0
2023-03-07T02:14:06.551Z,0
2023-03-07T02:15:02.532Z,0
2023-03-07T02:16:02.799Z,0
2023-03-07T02:17:02.531Z,0
2023-03-07T02:18:02.580Z,0
2023-03-07T02:19:05.601Z,0
2023-03-07T02:20:02.517Z,0
2023-03-07T02:21:02.597Z,0
2023-03-07T02:22:02.548Z,0
2023-03-07T02:23:02.551Z,0
2023-03-07T02:24:02.522Z,0
2023-03-07T02:25:05.551Z,0
2023-03-07T02:26:03.670Z,0
2023-03-07T02:27:02.572Z,0
2023-03-07T02:28:02.576Z,0
2023-03-07T02:29:02.585Z,0
2023-03-07T02:30:05.566Z,0
2023-03-07T02:31:02.856Z,0
2023-03-07T02:32:02.674Z,0
2023-03-07T02:33:05.419Z,0
2023-03-07T02:34:02.601Z,0
2023-03-07T02:35:02.652Z,0
2023-03-07T02:36:06.771Z,0
2023-03-07T02:37:02.550Z,0
2023-03-07T02:38:02.592Z,0
2023-03-07T02:39:02.588Z,0
2023-03-07T02:40:02.590Z,0
2023-03-07T02:41:05.492Z,0
2023-03-07T02:42:02.606Z,0
2023-03-07T02:43:02.582Z,0
2023-03-07T02:44:02.607Z,0
2023-03-07T02:45:02.591Z,0
2023-03-07T02:46:02.863Z,0
2023-03-07T02:47:05.679Z,0
2023-03-07T02:48:02.599Z,0
2023-03-07T02:49:02.644Z,0
2023-03-07T02:50:02.636Z,0
2023-03-07T02:51:02.640Z,0
2023-03-07T02:52:05.781Z,0
2023-03-07T02:53:02.589Z,0
2023-03-07T02:54:02.613Z,0
2023-03-07T02:55:02.601Z,0
2023-03-07T02:56:02.653Z,0
2023-03-07T02:57:02.597Z,0
2023-03-07T02:58:05.680Z,0
2023-03-07T02:59:02.634Z,0
2023-03-07T03:00:02.595Z,0
2023-03-07T03:01:02.826Z,0
2023-03-07T03:02:03.274Z,0
2023-03-07T03:03:05.456Z,0
2023-03-07T03:04:02.615Z,0
2023-03-07T03:05:03.128Z,0
2023-03-07T03:06:02.699Z,0
2023-03-07T03:07:02.685Z,0
2023-03-07T03:08:05.430Z,0
2023-03-07T03:09:02.662Z,0
2023-03-07T03:10:02.656Z,0
2023-03-07T03:11:02.698Z,0
2023-03-07T03:12:02.614Z,0
2023-03-07T03:13:02.631Z,0
2023-03-07T03:14:05.724Z,0
2023-03-07T03:15:02.650Z,0
2023-03-07T03:16:02.950Z,0
2023-03-07T03:17:02.736Z,0
2023-03-07T03:18:02.621Z,0
2023-03-07T03:19:03.753Z,0
2023-03-07T03:20:02.629Z,0
2023-03-07T03:21:02.798Z,0
2023-03-07T03:22:02.626Z,0
2023-03-07T03:23:02.690Z,0
2023-03-07T03:24:02.635Z,0
2023-03-07T03:25:02.645Z,0
2023-03-07T03:26:02.665Z,0
2023-03-07T03:27:02.656Z,0
2023-03-07T03:28:02.666Z,0
2023-03-07T03:29:02.658Z,0
2023-03-07T03:30:05.457Z,0
2023-03-07T03:31:02.920Z,0
2023-03-07T03:32:02.715Z,0
2023-03-07T03:33:02.671Z,0
2023-03-07T03:34:02.701Z,0
2023-03-07T03:35:02.495Z,0
2023-03-07T03:36:02.917Z,0
2023-03-07T03:37:02.541Z,0
2023-03-07T03:38:02.661Z,0
2023-03-07T03:39:02.661Z,0
2023-03-07T03:40:02.718Z,0
2023-03-07T03:41:02.687Z,0
2023-03-07T03:42:02.662Z,0
2023-03-07T03:43:02.672Z,0
2023-03-07T03:44:02.720Z,0
2023-03-07T03:45:02.662Z,0
2023-03-07T03:46:05.725Z,0
2023-03-07T03:47:03.096Z,0
2023-03-07T03:48:02.670Z,0
2023-03-07T03:49:02.715Z,0
2023-03-07T03:50:02.686Z,0
2023-03-07T03:51:02.785Z,0
2023-03-07T03:52:02.729Z,0
2023-03-07T03:53:02.834Z,0
2023-03-07T03:54:02.687Z,0
2023-03-07T03:55:02.738Z,0
2023-03-07T03:56:02.692Z,0
2023-03-07T03:57:05.740Z,0
2023-03-07T03:58:02.724Z,0
2023-03-07T03:59:02.765Z,0
2023-03-07T04:00:02.735Z,0
2023-03-07T04:01:02.704Z,0
2023-03-07T04:02:06.259Z,0
2023-03-07T04:03:03.442Z,0
2023-03-07T04:04:02.550Z,0
2023-03-07T04:05:02.754Z,0
2023-03-07T04:06:02.717Z,0
2023-03-07T04:07:02.716Z,0
2023-03-07T04:08:05.682Z,0
2023-03-07T04:09:02.768Z,0
2023-03-07T04:10:02.740Z,0
2023-03-07T04:11:03.000Z,0
2023-03-07T04:12:02.837Z,0
2023-03-07T04:13:05.574Z,0
2023-03-07T04:14:02.751Z,0
2023-03-07T04:15:02.712Z,0
2023-03-07T04:16:02.856Z,0
2023-03-07T04:17:02.586Z,0
2023-03-07T04:18:02.728Z,0
2023-03-07T04:19:03.782Z,0
2023-03-07T04:20:02.597Z,0
2023-03-07T04:21:02.601Z,0
2023-03-07T04:22:05.573Z,0
2023-03-07T04:23:02.748Z,0
2023-03-07T04:24:05.894Z,0
2023-03-07T04:25:02.794Z,0
2023-03-07T04:26:03.208Z,0
2023-03-07T04:27:02.766Z,0
2023-03-07T04:28:02.737Z,0
2023-03-07T04:29:02.787Z,0
2023-03-07T04:30:05.774Z,0
2023-03-07T04:31:02.783Z,0
2023-03-07T04:32:03.309Z,0
2023-03-07T04:33:02.752Z,0
2023-03-07T04:34:02.813Z,0
2023-03-07T04:35:05.543Z,0
2023-03-07T04:36:02.971Z,0
2023-03-07T04:37:02.925Z,0
2023-03-07T04:38:02.752Z,0
2023-03-07T04:39:02.758Z,0
2023-03-07T04:40:02.832Z,0
2023-03-07T04:41:05.637Z,0
2023-03-07T04:42:02.791Z,0
2023-03-07T04:43:02.732Z,0
2023-03-07T04:44:02.841Z,0
2023-03-07T04:45:04.771Z,0
2023-03-07T04:46:05.963Z,0
2023-03-07T04:47:02.667Z,0
2023-03-07T04:48:02.778Z,0
2023-03-07T04:49:02.815Z,0
2023-03-07T04:50:02.893Z,0
2023-03-07T04:51:02.891Z,0
2023-03-07T04:52:05.717Z,0
2023-03-07T04:53:02.799Z,0
2023-03-07T04:54:02.782Z,0
2023-03-07T04:55:02.820Z,0
2023-03-07T04:56:02.837Z,0
2023-03-07T04:57:05.883Z,0
2023-03-07T04:58:02.856Z,0
2023-03-07T04:59:02.820Z,0
2023-03-07T05:00:02.821Z,0
2023-03-07T05:01:03.125Z,0
2023-03-07T05:02:02.793Z,0
2023-03-07T05:03:06.078Z,0
2023-03-07T05:04:02.939Z,0
2023-03-07T05:05:03.021Z,0
2023-03-07T05:06:02.961Z,0
2023-03-07T05:07:02.785Z,0
2023-03-07T05:08:05.705Z,0
2023-03-07T05:09:02.850Z,0
2023-03-07T05:10:02.834Z,0
2023-03-07T05:11:02.821Z,0
2023-03-07T05:12:02.949Z,0
2023-03-07T05:13:02.792Z,0
2023-03-07T05:14:05.891Z,0
2023-03-07T05:15:02.840Z,0
2023-03-07T05:16:03.143Z,0
2023-03-07T05:17:02.823Z,0
2023-03-07T05:18:02.806Z,0
2023-03-07T05:19:08.262Z,0
2023-03-07T05:20:02.847Z,0
2023-03-07T05:21:02.880Z,0
2023-03-07T05:22:02.951Z,0
2023-03-07T05:23:02.837Z,0
2023-03-07T05:24:03.923Z,0
2023-03-07T05:25:05.727Z,0
2023-03-07T05:26:02.885Z,0
2023-03-07T05:27:02.849Z,0
2023-03-07T05:28:02.881Z,0
2023-03-07T05:29:03.020Z,0
2023-03-07T05:30:05.740Z,0
2023-03-07T05:31:03.236Z,0
2023-03-07T05:32:02.888Z,0
2023-03-07T05:33:02.891Z,0
2023-03-07T05:34:02.841Z,0
2023-03-07T05:35:05.899Z,0
2023-03-07T05:36:03.207Z,0
2023-03-07T05:37:02.946Z,0
2023-03-07T05:38:02.899Z,0
2023-03-07T05:39:03.871Z,0
2023-03-07T05:40:02.897Z,0
2023-03-07T05:41:05.821Z,0
2023-03-07T05:42:02.875Z,0
2023-03-07T05:43:02.859Z,0
2023-03-07T05:44:02.946Z,0
2023-03-07T05:45:02.865Z,0
2023-03-07T05:46:03.870Z,0
2023-03-07T05:47:02.864Z,0
2023-03-07T05:48:02.888Z,0
2023-03-07T05:49:02.869Z,0
2023-03-07T05:50:02.855Z,0
2023-03-07T05:51:02.914Z,0
2023-03-07T05:52:02.955Z,0
2023-03-07T05:53:02.889Z,0
2023-03-07T05:54:02.929Z,0
2023-03-07T05:55:02.864Z,0
2023-03-07T05:56:03.006Z,0
2023-03-07T05:57:09.022Z,0
2023-03-07T05:58:02.971Z,0
2023-03-07T05:59:02.724Z,0
2023-03-07T06:00:02.837Z,0
2023-03-07T06:01:02.634Z,0
2023-03-07T06:02:02.276Z,0
2023-03-07T06:03:03.378Z,0
2023-03-07T06:04:04.032Z,0
2023-03-07T06:05:03.557Z,0
2023-03-07T06:06:03.588Z,0
2023-03-07T06:07:02.914Z,0
2023-03-07T06:08:06.974Z,0
2023-03-07T06:09:02.935Z,0
2023-03-07T06:10:02.946Z,0
2023-03-07T06:11:02.925Z,0
2023-03-07T06:12:02.968Z,0
2023-03-07T06:13:06.001Z,0
2023-03-07T06:14:02.946Z,0
2023-03-07T06:15:02.920Z,0
2023-03-07T06:16:03.335Z,0
2023-03-07T06:17:02.906Z,0
2023-03-07T06:18:03.019Z,0
2023-03-07T06:19:05.778Z,0
2023-03-07T06:20:02.927Z,0
2023-03-07T06:21:06.987Z,0
2023-03-07T06:22:02.922Z,0
2023-03-07T06:23:02.956Z,0
2023-03-07T06:24:05.997Z,0
2023-03-07T06:25:02.914Z,0
2023-03-07T06:26:02.973Z,0
2023-03-07T06:27:02.976Z,0
2023-03-07T06:28:03.084Z,0
2023-03-07T06:29:06.025Z,0
2023-03-07T06:30:02.965Z,0
2023-03-07T06:31:03.068Z,0
2023-03-07T06:32:03.251Z,0
2023-03-07T06:33:03.037Z,0
2023-03-07T06:34:05.274Z,0
2023-03-07T06:35:06.008Z,0
2023-03-07T06:36:03.011Z,0
2023-03-07T06:37:02.941Z,0
2023-03-07T06:38:02.969Z,0
2023-03-07T06:39:03.020Z,0
2023-03-07T06:40:05.754Z,0
2023-03-07T06:41:03.022Z,0
2023-03-07T06:42:02.981Z,0
2023-03-07T06:43:02.984Z,0
2023-03-07T06:44:03.011Z,0
2023-03-07T06:45:02.998Z,0
2023-03-07T06:46:06.665Z,5
2023-03-07T06:47:02.971Z,5
2023-03-07T06:48:03.031Z,5
2023-03-07T06:49:02.988Z,5
2023-03-07T06:50:03.115Z,5
2023-03-07T06:51:06.180Z,5
2023-03-07T06:53:02.333Z,5
2023-03-07T06:54:02.954Z,5
2023-03-07T06:55:02.982Z,5
2023-03-07T06:56:02.849Z,5
2023-03-07T06:57:05.848Z,5
2023-03-07T06:58:03.019Z,5
2023-03-07T06:59:03.015Z,5
2023-03-07T07:00:02.750Z,5
2023-03-07T07:01:02.872Z,5
2023-03-07T07:02:06.818Z,5
2023-03-07T07:03:09.828Z,5
2023-03-07T07:04:03.027Z,5
2023-03-07T07:05:05.649Z,5
2023-03-07T07:06:03.127Z,5
2023-03-07T07:07:03.008Z,5
2023-03-07T07:08:06.071Z,5
2023-03-07T07:09:02.979Z,5
2023-03-07T07:10:06.015Z,5
2023-03-07T07:11:02.884Z,5
2023-03-07T07:12:03.010Z,5
2023-03-07T07:13:04.482Z,5
2023-03-07T07:14:03.043Z,5
2023-03-07T07:15:03.254Z,5
2023-03-07T07:16:03.030Z,5
2023-03-07T07:17:03.077Z,10
2023-03-07T07:18:03.270Z,10
2023-03-07T07:19:06.061Z,10
2023-03-07T07:20:03.020Z,10
2023-03-07T07:21:03.106Z,10
2023-03-07T07:22:02.689Z,10
2023-03-07T07:23:03.050Z,10
2023-03-07T07:24:05.849Z,10
2023-03-07T07:25:03.043Z,10
2023-03-07T07:26:03.134Z,10
2023-03-07T07:27:03.009Z,10
2023-03-07T07:28:03.038Z,10
2023-03-07T07:29:03.024Z,10
2023-03-07T07:30:05.983Z,10
2023-03-07T07:31:03.045Z,10
2023-03-07T07:32:03.970Z,10
2023-03-07T07:33:03.955Z,10
2023-03-07T07:34:03.035Z,10
2023-03-07T07:35:05.919Z,10
2023-03-07T07:36:03.250Z,10
2023-03-07T07:37:03.080Z,10
2023-03-07T07:38:03.053Z,10
2023-03-07T07:39:03.057Z,10
2023-03-07T07:40:03.066Z,10
2023-03-07T07:41:04.172Z,10
2023-03-07T07:42:02.891Z,10
2023-03-07T07:43:03.036Z,10
2023-03-07T07:44:03.037Z,10
2023-03-07T07:45:03.043Z,10
2023-03-07T07:46:06.397Z,10
2023-03-07T07:47:03.136Z,5
2023-03-07T07:48:03.132Z,5
2023-03-07T07:49:03.109Z,5
2023-03-07T07:50:03.056Z,5
2023-03-07T07:51:03.101Z,5
2023-03-07T07:52:05.953Z,5
2023-03-07T07:53:03.098Z,5
2023-03-07T07:54:03.133Z,5
2023-03-07T07:55:03.072Z,5
2023-03-07T07:56:03.166Z,5
2023-03-07T07:57:05.883Z,5
2023-03-07T07:58:03.100Z,5
2023-03-07T07:59:02.923Z,5
2023-03-07T08:00:03.104Z,5
2023-03-07T08:01:03.064Z,5
2023-03-07T08:02:03.332Z,5
2023-03-07T08:03:03.106Z,5
2023-03-07T08:04:03.286Z,5
2023-03-07T08:05:03.099Z,5
2023-03-07T08:06:03.072Z,5
2023-03-07T08:07:03.314Z,5
2023-03-07T08:08:06.178Z,5
2023-03-07T08:09:03.149Z,5
2023-03-07T08:10:03.112Z,5
2023-03-07T08:11:03.101Z,5
2023-03-07T08:12:03.122Z,5
2023-03-07T08:13:06.122Z,5
2023-03-07T08:14:03.180Z,5
2023-03-07T08:15:03.100Z,5
2023-03-07T08:16:03.383Z,5
2023-03-07T08:17:03.209Z,5
2023-03-07T08:18:03.132Z,5
2023-03-07T08:19:03.040Z,5
2023-03-07T08:20:05.591Z,5
2023-03-07T08:21:03.148Z,5
2023-03-07T08:22:03.161Z,5
2023-03-07T08:23:03.195Z,5
2023-03-07T08:24:05.965Z,5
2023-03-07T08:25:03.130Z,5
2023-03-07T08:26:04.733Z,5
2023-03-07T08:27:03.138Z,5
2023-03-07T08:28:03.224Z,5
2023-03-07T08:29:03.135Z,5
2023-03-07T08:30:03.149Z,5
2023-03-07T08:31:03.422Z,10
2023-03-07T08:32:03.265Z,10
2023-03-07T08:33:03.201Z,10
2023-03-07T08:34:06.222Z,10
2023-03-07T08:35:06.030Z,10
2023-03-07T08:36:03.558Z,10
2023-03-07T08:37:03.188Z,10
2023-03-07T08:38:03.128Z,10
2023-03-07T08:39:03.272Z,10
2023-03-07T08:40:06.004Z,10
2023-03-07T08:41:03.129Z,10
2023-03-07T08:42:03.090Z,10
2023-03-07T08:43:03.172Z,10
2023-03-07T08:44:03.320Z,10
2023-03-07T08:45:03.188Z,10
2023-03-07T08:46:06.374Z,10
2023-03-07T08:47:03.243Z,10
2023-03-07T08:48:03.327Z,15
2023-03-07T08:49:03.150Z,15
2023-03-07T08:50:03.223Z,15
2023-03-07T08:51:07.227Z,15
2023-03-07T08:52:03.223Z,15
2023-03-07T08:53:03.232Z,15
2023-03-07T08:54:03.212Z,15
2023-03-07T08:55:03.270Z,15
2023-03-07T08:56:04.540Z,15
2023-03-07T08:57:03.207Z,15
2023-03-07T08:58:03.152Z,15
2023-03-07T08:59:03.195Z,15
2023-03-07T09:00:03.286Z,15
2023-03-07T09:01:03.209Z,15
2023-03-07T09:02:06.486Z,15
2023-03-07T09:03:03.288Z,15
2023-03-07T09:04:03.382Z,15
2023-03-07T09:05:03.673Z,15
2023-03-07T09:06:03.342Z,15
2023-03-07T09:07:08.748Z,15
2023-03-07T09:08:07.241Z,15
2023-03-07T09:09:03.181Z,15
2023-03-07T09:10:03.019Z,15
2023-03-07T09:11:03.170Z,20
2023-03-07T09:12:03.227Z,20
2023-03-07T09:13:05.977Z,20
2023-03-07T09:14:03.224Z,20
2023-03-07T09:15:03.459Z,20
2023-03-07T09:16:03.510Z,20
2023-03-07T09:17:03.220Z,20
2023-03-07T09:18:06.413Z,20
2023-03-07T09:19:03.359Z,20
2023-03-07T09:20:03.222Z,20
2023-03-07T09:21:03.286Z,20
2023-03-07T09:22:03.356Z,20
2023-03-07T09:23:03.305Z,20
2023-03-07T09:24:06.272Z,20
2023-03-07T09:25:03.321Z,20
2023-03-07T09:26:02.902Z,20
2023-03-07T09:27:02.845Z,20
2023-03-07T09:28:03.336Z,20
2023-03-07T09:29:06.266Z,20
2023-03-07T09:30:03.260Z,20
2023-03-07T09:31:05.990Z,20
2023-03-07T09:32:03.464Z,20
2023-03-07T09:33:03.224Z,20
2023-03-07T09:34:04.279Z,20
2023-03-07T09:35:07.138Z,20
2023-03-07T09:36:03.580Z,20
2023-03-07T09:37:03.277Z,20
2023-03-07T09:38:03.306Z,20
2023-03-07T09:39:05.338Z,20
2023-03-07T09:40:04.301Z,20
2023-03-07T09:41:03.233Z,20
2023-03-07T09:42:03.228Z,20
2023-03-07T09:43:03.309Z,15
2023-03-07T09:44:03.270Z,15
2023-03-07T09:45:03.246Z,15
2023-03-07T09:46:06.689Z,15
2023-03-07T09:47:03.297Z,15
2023-03-07T09:48:03.271Z,15
2023-03-07T09:49:03.285Z,20
2023-03-07T09:50:03.311Z,20
2023-03-07T09:51:17.153Z,20
2023-03-07T09:52:03.290Z,20
2023-03-07T09:53:03.295Z,20
2023-03-07T09:54:03.324Z,20
2023-03-07T09:55:03.289Z,20
2023-03-07T09:56:03.240Z,20
2023-03-07T09:57:06.283Z,20
2023-03-07T09:58:03.283Z,20
2023-03-07T09:59:17.078Z,20
2023-03-07T10:00:03.253Z,20
2023-03-07T10:01:03.275Z,20
2023-03-07T10:02:06.198Z,20
2023-03-07T10:03:03.083Z,20
2023-03-07T10:04:04.085Z,20
2023-03-07T10:05:04.329Z,20
2023-03-07T10:06:03.346Z,20
2023-03-07T10:07:05.347Z,20
2023-03-07T10:08:04.326Z,20
2023-03-07T10:09:03.285Z,20
2023-03-07T10:10:03.283Z,20
2023-03-07T10:11:03.267Z,20
2023-03-07T10:12:05.639Z,20
2023-03-07T10:13:06.048Z,20
2023-03-07T10:14:03.255Z,20
2023-03-07T10:15:03.396Z,20
2023-03-07T10:16:03.390Z,20
2023-03-07T10:17:04.035Z,20
2023-03-07T10:18:07.628Z,20
2023-03-07T10:19:06.702Z,20
2023-03-07T10:20:03.752Z,25
2023-03-07T10:21:03.283Z,30
2023-03-07T10:22:03.305Z,30
2023-03-07T10:23:03.738Z,35
2023-03-07T10:24:06.461Z,35
2023-03-07T10:25:03.320Z,40
2023-03-07T10:26:03.371Z,40
2023-03-07T10:27:03.374Z,40
2023-03-07T10:28:03.303Z,45
2023-03-07T10:29:03.433Z,50
2023-03-07T10:30:03.338Z,60
2023-03-07T10:31:03.509Z,85
2023-03-07T10:32:03.759Z,90
2023-03-07T10:33:04.419Z,95
2023-03-07T10:34:03.270Z,80
2023-03-07T10:35:06.151Z,90
2023-03-07T10:36:03.418Z,75
2023-03-07T10:37:17.255Z,100
2023-03-07T10:38:03.319Z,95
2023-03-07T10:39:04.451Z,95
2023-03-07T10:40:09.270Z,75
2023-03-07T10:41:03.334Z,30
2023-03-07T10:42:03.546Z,95
2023-03-07T10:43:04.812Z,95
2023-03-07T10:44:04.034Z,90
2023-03-07T10:45:03.563Z,90
2023-03-07T10:46:04.609Z,90
2023-03-07T10:47:06.168Z,90
2023-03-07T10:48:03.355Z,95
2023-03-07T10:49:08.753Z,95
2023-03-07T10:50:03.830Z,70
2023-03-07T10:51:04.352Z,40
2023-03-07T10:52:03.291Z,35
2023-03-07T10:53:03.339Z,45
2023-03-07T10:54:03.380Z,55
2023-03-07T10:55:03.386Z,55
2023-03-07T10:56:03.376Z,55
2023-03-07T10:57:03.376Z,35
2023-03-07T10:58:04.565Z,40
2023-03-07T10:59:03.361Z,65
2023-03-07T11:00:03.356Z,45
2023-03-07T11:01:03.550Z,40
2023-03-07T11:02:06.478Z,40
2023-03-07T11:03:04.512Z,40
2023-03-07T11:04:06.633Z,35
2023-03-07T11:05:04.021Z,55
2023-03-07T11:06:03.356Z,40
2023-03-07T11:07:06.276Z,35
2023-03-07T11:08:03.375Z,35
2023-03-07T11:09:05.004Z,30
2023-03-07T11:10:03.375Z,25
2023-03-07T11:11:03.337Z,25
2023-03-07T11:12:03.341Z,25
2023-03-07T11:13:03.458Z,20
2023-03-07T11:14:03.377Z,20
2023-03-07T11:15:06.403Z,20
2023-03-07T11:16:18.704Z,20
2023-03-07T11:17:03.424Z,20
2023-03-07T11:18:05.298Z,15
2023-03-07T11:19:03.279Z,15
2023-03-07T11:20:03.374Z,15
2023-03-07T11:21:03.355Z,20
2023-03-07T11:22:03.227Z,20
2023-03-07T11:23:04.466Z,20
2023-03-07T11:24:03.692Z,20
2023-03-07T11:25:03.266Z,20
2023-03-07T11:26:03.408Z,20
2023-03-07T11:27:03.378Z,20
2023-03-07T11:28:03.454Z,20
2023-03-07T11:29:06.385Z,20
2023-03-07T11:30:03.415Z,20
2023-03-07T11:31:03.643Z,20
2023-03-07T11:32:05.591Z,20
2023-03-07T11:33:03.392Z,20
2023-03-07T11:34:08.935Z,20
2023-03-07T11:35:03.205Z,15
2023-03-07T11:36:03.733Z,15
2023-03-07T11:37:05.953Z,15
2023-03-07T11:38:03.427Z,15
2023-03-07T11:39:03.384Z,15
2023-03-07T11:40:06.584Z,15
2023-03-07T11:41:03.537Z,15
2023-03-07T11:42:03.376Z,15
2023-03-07T11:43:03.427Z,15
2023-03-07T11:44:05.436Z,15
2023-03-07T11:45:06.202Z,15
2023-03-07T11:46:03.714Z,15
2023-03-07T11:47:03.283Z,15
2023-03-07T11:48:03.467Z,15
2023-03-07T11:49:03.471Z,15
2023-03-07T11:50:03.468Z,15
2023-03-07T11:51:04.494Z,15
2023-03-07T11:52:03.380Z,15
2023-03-07T11:53:03.445Z,15
2023-03-07T11:54:03.411Z,15
2023-03-07T11:55:03.419Z,15
2023-03-07T11:56:06.279Z,15
2023-03-07T11:57:03.444Z,15
2023-03-07T11:58:03.458Z,15
2023-03-07T11:59:03.434Z,15
2023-03-07T12:00:03.457Z,15
2023-03-07T12:01:03.522Z,15
2023-03-07T12:02:06.510Z,15
2023-03-07T12:03:03.674Z,15
2023-03-07T12:04:04.319Z,15
2023-03-07T12:05:03.446Z,15
2023-03-07T12:06:03.982Z,15
2023-03-07T12:07:07.314Z,10
2023-03-07T12:08:03.478Z,10
2023-03-07T12:09:03.516Z,10
2023-03-07T12:10:07.096Z,10
2023-03-07T12:11:02.868Z,10
2023-03-07T12:12:02.843Z,10
2023-03-07T12:13:07.430Z,10
2023-03-07T12:14:03.499Z,10
2023-03-07T12:15:03.611Z,5
2023-03-07T12:16:03.746Z,5
2023-03-07T12:17:03.470Z,5
2023-03-07T12:18:06.312Z,5
2023-03-07T12:19:03.485Z,5
2023-03-07T12:20:03.475Z,5
2023-03-07T12:21:03.485Z,5
2023-03-07T12:22:03.564Z,5
2023-03-07T12:23:03.427Z,5
2023-03-07T12:24:06.184Z,5
2023-03-07T12:25:03.526Z,5
2023-03-07T12:26:03.487Z,5
2023-03-07T12:27:03.465Z,5
2023-03-07T12:28:03.555Z,5
2023-03-07T12:29:06.226Z,5
2023-03-07T12:30:03.467Z,5
2023-03-07T12:31:03.339Z,5
2023-03-07T12:32:04.420Z,5
2023-03-07T12:33:04.148Z,5
2023-03-07T12:34:03.373Z,5
2023-03-07T12:35:07.635Z,5
2023-03-07T12:36:04.283Z,5
2023-03-07T12:37:03.681Z,5
2023-03-07T12:38:03.581Z,5
2023-03-07T12:39:03.519Z,5
2023-03-07T12:40:08.119Z,5
2023-03-07T12:41:03.358Z,5
2023-03-07T12:42:03.543Z,5
2023-03-07T12:43:03.494Z,5
2023-03-07T12:44:03.531Z,5
2023-03-07T12:45:03.547Z,5
2023-03-07T12:46:06.697Z,5
2023-03-07T12:47:03.505Z,5
2023-03-07T12:48:03.504Z,5
2023-03-07T12:49:03.576Z,5
2023-03-07T12:50:03.610Z,5
2023-03-07T12:51:06.301Z,5
2023-03-07T12:52:03.525Z,5
2023-03-07T12:53:03.506Z,5
2023-03-07T12:54:03.509Z,5
2023-03-07T12:55:03.538Z,5
2023-03-07T12:56:03.563Z,5
2023-03-07T12:57:03.576Z,5
2023-03-07T12:58:03.192Z,5
2023-03-07T12:59:03.543Z,5
2023-03-07T13:00:03.513Z,5
2023-03-07T13:01:03.982Z,5
2023-03-07T13:02:06.523Z,5
2023-03-07T13:03:03.633Z,5
2023-03-07T13:04:04.037Z,5
2023-03-07T13:05:03.580Z,10
2023-03-07T13:06:03.624Z,10
2023-03-07T13:07:06.353Z,5
2023-03-07T13:08:03.521Z,5
2023-03-07T13:09:03.535Z,5
2023-03-07T13:10:03.776Z,5
2023-03-07T13:11:03.572Z,5
2023-03-07T13:12:03.698Z,5
2023-03-07T13:13:03.529Z,10
2023-03-07T13:14:03.598Z,10
2023-03-07T13:15:03.669Z,10
2023-03-07T13:16:03.553Z,5
2023-03-07T13:17:03.580Z,5
2023-03-07T13:18:06.661Z,10
2023-03-07T13:19:03.567Z,10
2023-03-07T13:20:03.461Z,10
2023-03-07T13:21:03.580Z,10
2023-03-07T13:22:03.555Z,10
2023-03-07T13:23:03.873Z,10
2023-03-07T13:24:03.571Z,10
2023-03-07T13:25:03.457Z,15
2023-03-07T13:26:03.649Z,15
2023-03-07T13:27:03.589Z,15
2023-03-07T13:28:03.461Z,20
2023-03-07T13:29:06.647Z,20
2023-03-07T13:30:03.548Z,20
2023-03-07T13:31:03.780Z,20
2023-03-07T13:32:06.327Z,20
2023-03-07T13:33:03.655Z,20
2023-03-07T13:34:06.616Z,20
2023-03-07T13:35:03.591Z,20
2023-03-07T13:36:03.976Z,20
2023-03-07T13:37:03.711Z,20
2023-03-07T13:38:03.635Z,25
2023-03-07T13:39:03.653Z,20
2023-03-07T13:40:03.572Z,20
2023-03-07T13:41:03.632Z,20
2023-03-07T13:42:03.752Z,20
2023-03-07T13:43:03.600Z,20
2023-03-07T13:44:03.767Z,20
2023-03-07T13:45:06.485Z,20
2023-03-07T13:46:04.032Z,20
2023-03-07T13:47:03.676Z,20
2023-03-07T13:48:03.629Z,20
2023-03-07T13:49:03.698Z,20
2023-03-07T13:50:06.149Z,20
2023-03-07T13:51:03.703Z,20
2023-03-07T13:52:03.582Z,20
2023-03-07T13:53:03.714Z,20
2023-03-07T13:54:03.614Z,20
2023-03-07T13:55:03.645Z,20
2023-03-07T13:56:06.501Z,20
2023-03-07T13:57:03.673Z,20
2023-03-07T13:58:06.457Z,20
2023-03-07T13:59:03.627Z,20
2023-03-07T14:00:03.705Z,20
2023-03-07T14:01:09.829Z,20
2023-03-07T14:02:03.671Z,20
2023-03-07T14:03:03.496Z,20
2023-03-07T14:04:03.957Z,25
2023-03-07T14:05:04.795Z,20
2023-03-07T14:06:03.776Z,20
2023-03-07T14:07:07.720Z,20
2023-03-07T14:08:03.579Z,20
2023-03-07T14:09:06.825Z,20
2023-03-07T14:10:23.380Z,25
2023-03-07T14:11:03.681Z,25
2023-03-07T14:12:09.730Z,30
2023-03-07T14:13:03.608Z,20
2023-03-07T14:14:03.553Z,20
2023-03-07T14:15:03.723Z,20
2023-03-07T14:16:03.632Z,20
2023-03-07T14:17:03.616Z,20
2023-03-07T14:18:04.621Z,20
2023-03-07T14:19:03.694Z,50
2023-03-07T14:20:03.609Z,45
2023-03-07T14:21:03.772Z,45
2023-03-07T14:22:03.699Z,20
2023-03-07T14:23:06.405Z,20
2023-03-07T14:24:03.656Z,20
2023-03-07T14:25:03.562Z,20
2023-03-07T14:26:03.639Z,25
2023-03-07T14:27:03.628Z,45
2023-03-07T14:28:03.498Z,20
2023-03-07T14:29:06.992Z,40
2023-03-07T14:30:03.767Z,45
2023-03-07T14:31:04.053Z,20
2023-03-07T14:32:03.686Z,20
2023-03-07T14:33:03.685Z,20
2023-03-07T14:34:06.750Z,20
2023-03-07T14:35:03.655Z,20